Time;durP1;ratioP1;P1;durP2;ratioP2;P2;SDS_P1;SDS_P2;PMS_P1;PMS_P2;Temp;Humidity;BMP_temperature;BMP_pressure;BME280_temperature;BME280_humidity;BME280_pressure;Samples;Min_cycle;Max_cycle;Signal;HPM_P1;HPM_P2
2022/07/27 00:00:26;;;;;;;0.80;0.80;;;22.20;55.40;;;;;;940218;148;27411;-75
2022/07/27 00:02:53;;;;;;;0.85;0.78;;;22.10;55.50;;;;;;939912;148;27312;-75
2022/07/27 00:05:19;;;;;;;1.37;1.10;;;22.10;55.60;;;;;;938169;148;27374;-75
2022/07/27 00:07:46;;;;;;;2.02;0.95;;;22.00;55.70;;;;;;938194;148;27337;-75
2022/07/27 00:10:12;;;;;;;1.00;1.00;;;22.00;55.90;;;;;;939174;148;28067;-75
2022/07/27 00:12:39;;;;;;;1.10;1.02;;;21.90;56.00;;;;;;939182;148;27321;-75
2022/07/27 00:15:06;;;;;;;1.05;1.05;;;21.90;56.10;;;;;;939888;148;27311;-75
2022/07/27 00:17:32;;;;;;;0.93;0.93;;;21.90;56.20;;;;;;937950;148;27448;-75
2022/07/27 00:19:59;;;;;;;0.95;0.93;;;21.80;56.30;;;;;;937857;148;27878;-75
2022/07/27 00:22:25;;;;;;;0.93;0.85;;;21.80;56.40;;;;;;936985;148;27397;-75
2022/07/27 00:24:52;;;;;;;0.80;0.80;;;21.80;56.60;;;;;;937126;148;27259;-75
2022/07/27 00:27:19;;;;;;;0.88;0.88;;;21.70;56.60;;;;;;937953;148;27434;-75
2022/07/27 00:29:45;;;;;;;0.72;0.70;;;21.60;57.30;;;;;;935995;148;27369;-75
2022/07/27 00:32:12;;;;;;;1.52;0.70;;;21.60;56.80;;;;;;939073;148;27465;-75
2022/07/27 00:34:38;;;;;;;0.65;0.65;;;21.50;56.90;;;;;;937318;148;27347;-75
2022/07/27 00:37:05;;;;;;;0.95;0.68;;;21.50;57.00;;;;;;938324;148;27317;-75
2022/07/27 00:39:31;;;;;;;0.93;0.80;;;21.50;57.20;;;;;;937847;148;27420;-75
2022/07/27 00:41:58;;;;;;;0.95;0.90;;;21.40;57.30;;;;;;937421;148;27378;-75
2022/07/27 00:44:27;;;;;;;0.60;0.60;;;21.50;57.40;;;;;;939384;148;27357;-75
2022/07/27 00:46:54;;;;;;;0.47;0.47;;;21.50;57.50;;;;;;939343;148;27525;-75
2022/07/27 00:49:21;;;;;;;0.70;0.70;;;21.50;57.70;;;;;;939917;151;27382;-75
2022/07/27 00:51:47;;;;;;;1.65;0.57;;;21.50;57.70;;;;;;922442;154;27373;-75
2022/07/27 00:54:14;;;;;;;0.57;0.57;;;21.50;57.80;;;;;;925384;154;27406;-75
2022/07/27 00:56:40;;;;;;;0.47;0.47;;;21.50;57.80;;;;;;923351;152;27382;-75
2022/07/27 00:59:07;;;;;;;0.70;0.60;;;21.50;57.90;;;;;;929418;154;27448;-75
2022/07/27 01:01:34;;;;;;;0.60;0.60;;;21.50;57.90;;;;;;939495;151;27400;-75
2022/07/27 01:04:00;;;;;;;3.65;0.40;;;21.50;58.00;;;;;;937127;151;27415;-75
2022/07/27 01:06:27;;;;;;;0.50;0.50;;;21.50;58.00;;;;;;937143;151;27835;-75
2022/07/27 01:09:55;;;;;;;0.50;0.50;;;21.50;58.00;;;;;;941829;151;27374;-75
2022/07/27 01:11:20;;;;;;;1.27;0.53;;;21.50;58.00;;;;;;937841;151;27327;-75
2022/07/27 01:13:46;;;;;;;0.40;0.40;;;21.50;58.10;;;;;;925064;154;27423;-75
2022/07/27 01:16:13;;;;;;;0.50;0.50;;;21.50;58.10;;;;;;922915;153;27293;-75
2022/07/27 01:18:40;;;;;;;0.47;0.47;;;21.50;58.10;;;;;;941198;151;27313;-75
2022/07/27 01:21:06;;;;;;;0.53;0.53;;;21.50;58.10;;;;;;940958;149;27421;-75
2022/07/27 01:23:33;;;;;;;2.83;0.62;;;21.50;58.20;;;;;;940701;151;28172;-75
2022/07/27 01:25:59;;;;;;;0.50;0.50;;;21.50;58.20;;;;;;940505;149;27408;-75
2022/07/27 01:28:26;;;;;;;1.00;0.57;;;21.40;58.40;;;;;;939593;151;27420;-75
2022/07/27 01:30:53;;;;;;;0.50;0.50;;;21.40;58.40;;;;;;937656;151;27339;-75
2022/07/27 01:33:24;;;;;;;0.40;0.40;;;21.40;58.50;;;;;;940305;151;27494;-75
2022/07/27 01:35:46;;;;;;;0.75;0.50;;;21.30;58.50;;;;;;938683;151;27533;-75
2022/07/27 01:38:12;;;;;;;0.40;0.40;;;21.30;58.60;;;;;;924982;154;27422;-75
2022/07/27 01:40:39;;;;;;;0.68;0.55;;;21.30;58.60;;;;;;940279;151;27338;-75
2022/07/27 01:43:06;;;;;;;1.07;0.60;;;21.20;58.70;;;;;;938308;151;27391;-75
2022/07/27 01:45:32;;;;;;;0.40;0.40;;;21.20;59.50;;;;;;938974;151;27376;-75
2022/07/27 01:47:59;;;;;;;0.55;0.55;;;21.20;58.90;;;;;;940790;148;27499;-75
2022/07/27 01:50:25;;;;;;;0.47;0.35;;;21.20;59.00;;;;;;939937;151;27439;-75
2022/07/27 01:52:52;;;;;;;0.53;0.50;;;21.10;59.10;;;;;;938272;151;27320;-75
2022/07/27 01:55:18;;;;;;;0.62;0.47;;;21.10;59.10;;;;;;937880;151;27392;-75
2022/07/27 01:57:45;;;;;;;0.80;0.42;;;21.10;59.20;;;;;;923802;152;27454;-75
2022/07/27 02:00:12;;;;;;;0.23;0.23;;;21.10;59.30;;;;;;926143;154;27374;-75
2022/07/27 02:02:38;;;;;;;0.35;0.35;;;21.10;59.30;;;;;;925701;154;27459;-75
2022/07/27 02:05:05;;;;;;;0.30;0.30;;;21.10;59.40;;;;;;925185;154;27344;-75
2022/07/27 02:07:31;;;;;;;0.40;0.40;;;21.10;59.40;;;;;;924736;154;27330;-75
2022/07/27 02:09:58;;;;;;;1.67;0.50;;;21.10;59.40;;;;;;922008;154;27432;-75
2022/07/27 02:12:36;;;;;;;0.20;0.20;;;21.10;59.40;;;;;;939501;151;27426;-75
2022/07/27 02:15:12;;;;;;;0.47;0.13;;;21.10;59.50;;;;;;925956;154;27384;-75
2022/07/27 02:17:39;;;;;;;1.17;0.50;;;21.10;59.50;;;;;;924466;154;27298;-75
2022/07/27 02:20:05;;;;;;;0.57;0.57;;;21.10;59.50;;;;;;928885;151;27319;-75
2022/07/27 02:22:32;;;;;;;0.40;0.40;;;21.00;59.60;;;;;;934612;151;27335;-75
2022/07/27 02:24:58;;;;;;;0.55;0.33;;;21.00;59.60;;;;;;926567;152;27361;-75
2022/07/27 02:27:25;;;;;;;0.57;0.57;;;21.00;59.70;;;;;;938380;151;27344;-75
2022/07/27 02:29:52;;;;;;;0.30;0.30;;;21.00;59.70;;;;;;939789;148;27350;-75
2022/07/27 02:32:18;;;;;;;0.82;0.50;;;21.00;59.80;;;;;;938527;151;27311;-75
2022/07/27 02:34:45;;;;;;;0.37;0.30;;;21.00;59.80;;;;;;939599;151;27404;-76
2022/07/27 02:37:11;;;;;;;1.22;0.55;;;21.00;59.90;;;;;;939229;151;27414;-76
2022/07/27 02:39:38;;;;;;;0.33;0.33;;;21.00;60.00;;;;;;939776;151;27371;-76
2022/07/27 02:42:04;;;;;;;0.70;0.40;;;21.00;60.00;;;;;;941311;151;28771;-76
2022/07/27 02:44:31;;;;;;;0.42;0.42;;;21.00;60.00;;;;;;937392;151;27424;-76
2022/07/27 02:46:58;;;;;;;0.68;0.30;;;20.90;60.00;;;;;;939579;151;27400;-76
2022/07/27 02:49:24;;;;;;;0.40;0.40;;;20.90;60.00;;;;;;950387;146;27443;-76
2022/07/27 02:51:51;;;;;;;0.53;0.50;;;20.90;60.10;;;;;;953769;146;27444;-76
2022/07/27 02:54:20;;;;;;;0.90;0.78;;;20.90;60.30;;;;;;945986;150;28113;-76
2022/07/27 02:56:50;;;;;;;1.02;0.55;;;20.80;60.20;;;;;;946430;150;27284;-76
2022/07/27 02:59:17;;;;;;;0.30;0.30;;;20.80;60.40;;;;;;945042;150;27385;-76
2022/07/27 03:01:43;;;;;;;1.40;0.80;;;20.80;60.40;;;;;;946415;150;27673;-76
2022/07/27 03:04:09;;;;;;;0.95;0.45;;;20.80;60.60;;;;;;946476;148;27355;-76
2022/07/27 03:06:36;;;;;;;1.62;0.40;;;20.70;60.70;;;;;;946156;148;27302;-76
2022/07/27 03:09:02;;;;;;;0.72;0.53;;;20.70;60.90;;;;;;956268;146;27281;-76
2022/07/27 03:11:29;;;;;;;0.65;0.40;;;20.70;60.90;;;;;;955486;146;27320;-76
2022/07/27 03:13:56;;;;;;;0.40;0.40;;;20.70;60.90;;;;;;945161;150;27388;-76
2022/07/27 03:16:22;;;;;;;1.00;0.93;;;20.70;60.90;;;;;;939696;149;27468;-76
2022/07/27 03:18:49;;;;;;;0.42;0.30;;;20.60;60.90;;;;;;945948;150;27383;-76
2022/07/27 03:21:15;;;;;;;0.42;0.42;;;20.60;61.00;;;;;;938510;149;27345;-76
2022/07/27 03:23:42;;;;;;;1.00;0.50;;;20.60;61.00;;;;;;956469;146;27278;-76
2022/07/27 03:26:09;;;;;;;0.45;0.45;;;20.60;61.10;;;;;;955198;146;27404;-76
2022/07/27 03:28:35;;;;;;;2.95;0.62;;;20.50;61.20;;;;;;956334;146;27346;-76
2022/07/27 03:31:02;;;;;;;1.07;0.40;;;20.50;61.30;;;;;;955650;146;27380;-76
2022/07/27 03:33:28;;;;;;;0.93;0.80;;;20.40;61.60;;;;;;956294;146;27282;-76
2022/07/27 03:35:55;;;;;;;1.45;0.72;;;20.40;61.60;;;;;;957653;146;27326;-76
2022/07/27 03:38:22;;;;;;;3.83;0.80;;;20.30;61.90;;;;;;956335;146;27307;-76
2022/07/27 03:40:48;;;;;;;0.60;0.50;;;20.20;62.00;;;;;;954635;146;27433;-76
2022/07/27 03:43:15;;;;;;;2.95;0.50;;;20.20;62.20;;;;;;957680;146;27443;-76
2022/07/27 03:45:41;;;;;;;0.47;0.47;;;20.20;62.40;;;;;;955353;146;27331;-76
2022/07/27 03:48:08;;;;;;;1.15;0.45;;;20.10;62.60;;;;;;955000;146;27452;-76
2022/07/27 03:50:34;;;;;;;1.65;0.70;;;20.10;62.80;;;;;;939118;148;27381;-76
2022/07/27 03:53:01;;;;;;;0.78;0.78;;;20.10;62.90;;;;;;940377;148;27379;-76
2022/07/27 03:55:28;;;;;;;1.45;0.60;;;20.10;63.20;;;;;;938873;148;27454;-76
2022/07/27 03:57:54;;;;;;;0.60;0.50;;;20.10;63.30;;;;;;940045;148;27313;-76
2022/07/27 04:00:21;;;;;;;0.98;0.60;;;20.10;63.50;;;;;;928077;150;27341;-76
2022/07/27 04:02:47;;;;;;;0.80;0.50;;;20.10;63.50;;;;;;940510;147;27373;-76
2022/07/27 04:05:14;;;;;;;1.72;0.68;;;20.10;63.60;;;;;;939876;148;27420;-76
2022/07/27 04:07:41;;;;;;;0.62;0.62;;;20.10;63.90;;;;;;939264;148;27374;-76
2022/07/27 04:10:07;;;;;;;1.35;0.60;;;20.00;63.90;;;;;;940162;148;27349;-76
2022/07/27 04:12:37;;;;;;;0.65;0.65;;;20.00;63.90;;;;;;940798;147;27392;-76
2022/07/27 04:15:03;;;;;;;0.53;0.47;;;20.00;64.00;;;;;;939294;148;27317;-76
2022/07/27 04:17:30;;;;;;;0.72;0.72;;;20.00;64.10;;;;;;938902;148;27311;-76
2022/07/27 04:19:57;;;;;;;0.82;0.65;;;20.00;64.20;;;;;;938207;148;27296;-76
2022/07/27 04:22:23;;;;;;;0.72;0.53;;;20.00;64.20;;;;;;937925;149;27372;-76
2022/07/27 04:24:50;;;;;;;0.70;0.70;;;20.00;64.40;;;;;;936220;149;27314;-76
2022/07/27 04:27:16;;;;;;;0.98;0.60;;;20.00;64.50;;;;;;937552;149;27343;-76
2022/07/27 04:29:43;;;;;;;1.72;0.75;;;20.10;64.70;;;;;;937096;149;27799;-76
2022/07/27 04:32:09;;;;;;;0.75;0.60;;;20.10;64.70;;;;;;935641;149;27433;-76
2022/07/27 04:34:36;;;;;;;1.72;0.60;;;20.10;65.00;;;;;;935303;149;27353;-76
2022/07/27 04:37:03;;;;;;;0.45;0.45;;;20.20;65.00;;;;;;936528;149;27348;-76
2022/07/27 04:39:29;;;;;;;1.02;0.50;;;20.20;65.10;;;;;;936071;149;27450;-76
2022/07/27 04:41:56;;;;;;;1.47;0.80;;;20.20;65.00;;;;;;936922;149;27377;-76
2022/07/27 04:44:22;;;;;;;2.85;0.88;;;20.30;65.00;;;;;;936528;149;27322;-76
2022/07/27 04:46:49;;;;;;;0.68;0.50;;;20.40;65.00;;;;;;937069;150;27794;-76
2022/07/27 04:49:16;;;;;;;0.53;0.53;;;20.40;64.90;;;;;;936472;149;27360;-76
2022/07/27 04:51:42;;;;;;;0.82;0.62;;;20.40;64.70;;;;;;924413;151;27428;-76
2022/07/27 04:54:10;;;;;;;1.17;0.68;;;20.50;64.70;;;;;;941666;151;27299;-76
2022/07/27 04:56:35;;;;;;;2.37;0.62;;;20.60;64.70;;;;;;940887;149;27394;-76
2022/07/27 04:59:02;;;;;;;1.35;0.85;;;20.60;64.60;;;;;;940776;151;27398;-76
2022/07/27 05:01:29;;;;;;;0.65;0.50;;;20.70;64.50;;;;;;940503;151;27670;-76
2022/07/27 05:03:55;;;;;;;0.85;0.70;;;20.80;64.50;;;;;;939172;151;27444;-76
2022/07/27 05:06:22;;;;;;;1.07;0.78;;;20.80;64.60;;;;;;940022;151;27312;-76
2022/07/27 05:08:48;;;;;;;2.00;0.80;;;20.90;64.50;;;;;;940344;151;27321;-76
2022/07/27 05:11:15;;;;;;;0.98;0.85;;;21.00;64.50;;;;;;939206;151;27461;-76
2022/07/27 05:13:41;;;;;;;0.93;0.90;;;21.00;64.30;;;;;;941331;151;27391;-76
2022/07/27 05:16:08;;;;;;;1.22;1.12;;;21.10;64.30;;;;;;940860;149;27487;-76
2022/07/27 05:18:35;;;;;;;1.95;0.65;;;21.20;64.30;;;;;;938811;151;27351;-76
2022/07/27 05:21:01;;;;;;;2.45;0.88;;;21.30;64.30;;;;;;938884;151;27322;-76
2022/07/27 05:23:28;;;;;;;1.12;1.00;;;21.40;64.20;;;;;;939972;151;27427;-76
2022/07/27 05:25:54;;;;;;;1.22;0.62;;;21.50;64.00;;;;;;939464;149;27388;-76
2022/07/27 05:28:21;;;;;;;0.80;0.80;;;21.60;63.90;;;;;;939206;151;27340;-76
2022/07/27 05:30:48;;;;;;;1.27;0.80;;;21.70;63.70;;;;;;938798;151;27346;-76
2022/07/27 05:33:14;;;;;;;1.40;0.78;;;21.80;63.70;;;;;;938405;151;27307;-76
2022/07/27 05:35:41;;;;;;;2.05;0.80;;;21.90;63.70;;;;;;938906;151;27353;-76
2022/07/27 05:38:07;;;;;;;1.35;0.93;;;22.10;63.50;;;;;;938521;151;27318;-76
2022/07/27 05:40:34;;;;;;;0.93;0.55;;;22.20;63.40;;;;;;939033;151;27434;-76
2022/07/27 05:43:01;;;;;;;1.27;0.75;;;22.40;63.20;;;;;;929270;151;27471;-76
2022/07/27 05:45:27;;;;;;;1.65;0.70;;;22.60;62.70;;;;;;922469;152;27342;-76
2022/07/27 05:47:54;;;;;;;1.67;0.90;;;22.70;62.30;;;;;;924128;154;27432;-76
2022/07/27 05:50:20;;;;;;;2.42;0.90;;;22.80;61.90;;;;;;924618;150;27378;-76
2022/07/27 05:52:47;;;;;;;1.17;0.85;;;22.90;61.60;;;;;;938166;148;27381;-76
2022/07/27 05:55:13;;;;;;;0.98;0.72;;;22.90;61.10;;;;;;938651;148;27351;-76
2022/07/27 05:57:40;;;;;;;1.32;0.90;;;23.00;60.90;;;;;;937455;148;27383;-76
2022/07/27 06:00:07;;;;;;;0.55;0.55;;;23.00;60.50;;;;;;940688;148;27327;-76
2022/07/27 06:02:33;;;;;;;0.68;0.68;;;23.10;60.30;;;;;;940559;147;27328;-76
2022/07/27 06:05:00;;;;;;;2.65;1.00;;;23.10;60.50;;;;;;938662;148;27322;-77
2022/07/27 06:10:11;;;;;;;0.90;0.65;;;23.40;61.10;;;;;;927894;150;27420;-77
2022/07/27 06:12:38;;;;;;;1.00;0.70;;;23.50;60.80;;;;;;939053;148;27842;-77
2022/07/27 06:15:05;;;;;;;1.52;0.70;;;23.70;60.20;;;;;;938355;148;27336;-77
2022/07/27 06:17:31;;;;;;;1.47;0.98;;;23.80;60.00;;;;;;937378;148;27389;-77
2022/07/27 06:19:58;;;;;;;1.87;0.70;;;24.00;59.70;;;;;;938716;148;27447;-77
2022/07/27 06:22:24;;;;;;;1.25;0.60;;;24.20;59.80;;;;;;938552;148;27375;-77
2022/07/27 06:24:51;;;;;;;1.15;0.72;;;24.40;60.00;;;;;;940306;148;27398;-78
2022/07/27 06:27:18;;;;;;;1.02;0.70;;;24.70;59.70;;;;;;936935;148;27253;-78
2022/07/27 06:29:44;;;;;;;2.08;0.85;;;25.00;59.20;;;;;;938224;148;27827;-78
2022/07/27 06:32:11;;;;;;;2.25;0.85;;;25.30;58.50;;;;;;938316;148;27326;-78
2022/07/27 06:34:37;;;;;;;1.10;0.78;;;25.40;57.80;;;;;;939476;148;27362;-79
2022/07/27 06:37:04;;;;;;;1.77;0.85;;;25.60;57.40;;;;;;937153;148;27372;-80
2022/07/27 06:39:31;;;;;;;1.70;0.98;;;25.70;57.10;;;;;;938463;148;27445;-79
2022/07/27 06:41:57;;;;;;;3.00;1.00;;;25.90;57.40;;;;;;938341;148;27297;-80
2022/07/27 06:44:24;;;;;;;1.40;0.75;;;26.20;57.80;;;;;;937531;148;27293;-78
2022/07/27 06:46:50;;;;;;;2.08;0.90;;;26.50;58.00;;;;;;936855;148;27337;-78
2022/07/27 06:49:17;;;;;;;3.42;0.80;;;27.10;58.10;;;;;;935936;148;27884;-79
2022/07/27 06:51:43;;;;;;;1.47;0.57;;;27.70;57.60;;;;;;936808;148;28023;-79
2022/07/27 06:54:10;;;;;;;0.98;0.80;;;28.30;57.10;;;;;;939450;148;27295;-79
2022/07/27 06:56:37;;;;;;;2.22;1.10;;;29.00;56.60;;;;;;920371;152;27471;-79
2022/07/27 06:59:03;;;;;;;1.57;0.72;;;29.80;56.10;;;;;;921279;150;27332;-79
2022/07/27 07:01:30;;;;;;;2.47;0.75;;;30.50;55.00;;;;;;925412;150;27472;-80
2022/07/27 07:03:58;;;;;;;5.87;1.05;;;31.20;53.80;;;;;;936102;149;27354;-80
2022/07/27 07:06:23;;;;;;;1.57;0.95;;;31.80;52.00;;;;;;937532;149;27344;-80
2022/07/27 07:08:50;;;;;;;1.82;0.95;;;32.20;51.00;;;;;;936048;149;27424;-79
2022/07/27 07:11:16;;;;;;;1.55;0.80;;;32.60;49.80;;;;;;936807;149;27339;-79
2022/07/27 07:13:43;;;;;;;1.70;0.95;;;32.80;48.80;;;;;;938409;149;27367;-79
2022/07/27 07:16:09;;;;;;;2.27;1.32;;;33.00;48.30;;;;;;934941;149;27847;-79
2022/07/27 07:18:36;;;;;;;2.75;0.95;;;33.10;47.60;;;;;;936037;149;27444;-80
2022/07/27 07:21:03;;;;;;;2.25;0.62;;;33.30;47.20;;;;;;934692;149;27340;-80
2022/07/27 07:23:29;;;;;;;1.98;0.75;;;33.50;47.10;;;;;;936573;149;27386;-80
2022/07/27 07:25:56;;;;;;;1.42;0.60;;;33.80;47.10;;;;;;935238;149;27319;-80
2022/07/27 07:28:22;;;;;;;1.15;0.95;;;34.10;47.00;;;;;;935650;149;27834;-80
2022/07/27 07:30:49;;;;;;;1.00;0.68;;;34.50;46.50;;;;;;936807;149;27358;-80
2022/07/27 07:33:16;;;;;;;2.00;0.70;;;34.80;45.60;;;;;;935767;150;27283;-80
2022/07/27 07:35:42;;;;;;;1.77;1.00;;;35.10;44.10;;;;;;939084;149;27338;-80
2022/07/27 07:38:09;;;;;;;2.25;1.00;;;35.20;43.80;;;;;;937506;149;27350;-80
2022/07/27 07:40:36;;;;;;;3.27;1.35;;;35.40;43.80;;;;;;937679;149;27354;-80
2022/07/27 07:43:02;;;;;;;3.05;1.30;;;35.60;43.60;;;;;;937927;149;26259;-80
2022/07/27 07:45:28;;;;;;;0.93;0.70;;;35.80;43.40;;;;;;935241;149;26270;-80
2022/07/27 07:47:55;;;;;;;2.12;0.72;;;36.20;43.30;;;;;;935428;150;26255;-78
2022/07/27 07:50:22;;;;;;;1.55;0.85;;;36.50;42.80;;;;;;933554;149;26264;-78
2022/07/27 07:52:48;;;;;;;1.47;0.90;;;36.90;42.60;;;;;;928944;149;26405;-78
2022/07/27 07:55:15;;;;;;;1.42;1.00;;;37.40;41.80;;;;;;919179;152;26282;-78
2022/07/27 07:57:41;;;;;;;1.57;0.90;;;37.80;41.50;;;;;;939245;149;26221;-78
2022/07/27 08:00:08;;;;;;;2.40;0.98;;;38.20;40.50;;;;;;939760;151;26250;-78
2022/07/27 08:02:46;;;;;;;1.65;1.00;;;38.50;39.80;;;;;;938850;151;27753;-78
2022/07/27 08:05:13;;;;;;;2.40;0.90;;;38.70;38.60;;;;;;939629;149;26362;-78
2022/07/27 08:07:39;;;;;;;5.97;1.05;;;38.90;38.40;;;;;;941173;148;26242;-78
2022/07/27 08:10:06;;;;;;;0.82;0.82;;;39.00;38.10;;;;;;940475;151;26194;-78
2022/07/27 08:12:33;;;;;;;2.30;0.80;;;39.00;37.50;;;;;;939541;151;26192;-78
2022/07/27 08:14:59;;;;;;;2.22;1.17;;;39.20;37.20;;;;;;941238;151;26282;-78
2022/07/27 08:17:26;;;;;;;1.25;0.93;;;39.10;36.80;;;;;;939722;151;26238;-78
2022/07/27 08:19:52;;;;;;;2.05;0.90;;;39.10;36.50;;;;;;938056;151;27498;-78
2022/07/27 08:22:19;;;;;;;2.80;0.93;;;39.00;36.40;;;;;;940212;151;28393;-78
2022/07/27 08:24:46;;;;;;;2.45;1.02;;;38.90;36.30;;;;;;940069;151;26331;-78
2022/07/27 08:27:12;;;;;;;1.50;0.85;;;38.70;35.20;;;;;;940480;148;26237;-78
2022/07/27 08:29:39;;;;;;;1.65;0.98;;;38.30;34.30;;;;;;939813;149;27381;-78
2022/07/27 08:32:05;;;;;;;1.20;0.90;;;37.80;34.20;;;;;;940340;151;27364;-78
2022/07/27 08:34:32;;;;;;;2.33;1.17;;;37.20;35.00;;;;;;940588;151;27338;-78
2022/07/27 08:36:59;;;;;;;1.37;0.95;;;36.70;35.30;;;;;;939534;151;27321;-78
2022/07/27 08:39:25;;;;;;;0.80;0.68;;;36.30;35.50;;;;;;939866;149;27402;-78
2022/07/27 08:41:52;;;;;;;3.90;0.93;;;35.90;36.00;;;;;;939394;149;27333;-78
2022/07/27 08:44:18;;;;;;;1.95;0.95;;;35.60;36.30;;;;;;939841;151;27519;-78
2022/07/27 08:46:45;;;;;;;3.10;1.12;;;35.40;36.60;;;;;;940242;151;27348;-78
2022/07/27 08:49:12;;;;;;;1.60;1.10;;;35.20;36.30;;;;;;939021;151;27335;-78
2022/07/27 08:51:38;;;;;;;2.08;0.93;;;34.90;36.50;;;;;;939484;149;27733;-78
2022/07/27 08:54:05;;;;;;;2.65;1.15;;;34.60;36.30;;;;;;940682;151;27371;-78
2022/07/27 08:56:31;;;;;;;2.27;1.07;;;34.30;36.20;;;;;;938839;151;27415;-78
2022/07/27 08:58:58;;;;;;;3.10;0.70;;;33.80;36.30;;;;;;940662;151;27483;-78
2022/07/27 09:01:24;;;;;;;2.42;1.02;;;33.30;36.60;;;;;;940117;151;27445;-78
2022/07/27 09:03:51;;;;;;;2.35;1.40;;;33.00;37.40;;;;;;941270;151;27330;-78
2022/07/27 09:06:40;;;;;;;1.70;0.93;;;32.70;38.50;;;;;;940695;151;27329;-78
2022/07/27 09:09:06;;;;;;;1.22;0.75;;;32.80;38.90;;;;;;938765;149;27394;-78
2022/07/27 09:11:35;;;;;;;1.55;1.15;;;33.10;39.60;;;;;;941022;151;27309;-78
2022/07/27 09:14:02;;;;;;;2.37;1.00;;;33.30;39.30;;;;;;937383;151;27448;-78
2022/07/27 09:16:30;;;;;;;1.82;1.30;;;33.60;38.80;;;;;;940755;151;27370;-78
2022/07/27 09:19:04;;;;;;;1.72;1.10;;;34.00;38.40;;;;;;940769;149;27378;-78
2022/07/27 09:21:30;;;;;;;1.80;1.17;;;34.30;38.30;;;;;;939329;151;27361;-78
2022/07/27 09:24:09;;;;;;;2.67;1.05;;;34.60;38.40;;;;;;939613;151;27884;-78
2022/07/27 09:26:36;;;;;;;1.98;1.12;;;35.10;38.60;;;;;;939581;148;27579;-77
2022/07/27 09:29:11;;;;;;;3.33;1.27;;;35.50;38.10;;;;;;940213;148;26357;-77
2022/07/27 09:31:44;;;;;;;3.58;1.30;;;35.80;36.70;;;;;;939132;151;27801;-77
2022/07/27 09:34:11;;;;;;;2.15;1.07;;;35.80;35.70;;;;;;939471;151;27267;-77
2022/07/27 09:36:49;;;;;;;2.77;1.22;;;35.60;34.80;;;;;;938993;148;27417;-77
2022/07/27 09:39:16;;;;;;;2.85;0.90;;;35.20;34.50;;;;;;939733;151;27353;-77
2022/07/27 09:41:42;;;;;;;2.77;1.05;;;34.90;34.90;;;;;;938594;149;27347;-77
2022/07/27 09:44:09;;;;;;;1.77;1.07;;;34.40;35.00;;;;;;923517;154;27311;-77
2022/07/27 09:46:35;;;;;;;1.70;1.00;;;33.90;35.30;;;;;;924926;154;27276;-77
2022/07/27 09:49:02;;;;;;;2.22;1.40;;;33.40;35.30;;;;;;927589;151;27363;-77
2022/07/27 09:51:29;;;;;;;1.00;0.90;;;33.10;35.80;;;;;;925085;151;27466;-77
2022/07/27 09:53:55;;;;;;;2.62;1.20;;;32.80;36.30;;;;;;938961;148;27527;-77
2022/07/27 09:56:28;;;;;;;2.98;1.25;;;32.60;37.00;;;;;;938944;151;27304;-77
2022/07/27 09:58:57;;;;;;;2.65;1.20;;;32.70;37.80;;;;;;939787;151;27335;-78
2022/07/27 10:01:24;;;;;;;2.27;1.07;;;32.90;38.40;;;;;;941347;151;27315;-77
2022/07/27 10:03:54;;;;;;;1.47;0.98;;;33.20;38.10;;;;;;939308;151;27310;-77
2022/07/27 10:06:21;;;;;;;2.95;1.20;;;33.60;37.60;;;;;;938088;148;26270;-77
2022/07/27 10:08:47;;;;;;;1.50;1.10;;;34.00;37.80;;;;;;940338;148;27450;-77
2022/07/27 10:11:13;;;;;;;3.22;1.42;;;34.30;37.70;;;;;;939348;149;26195;-77
2022/07/27 10:13:40;;;;;;;2.37;0.90;;;34.70;37.00;;;;;;940436;149;26247;-77
2022/07/27 10:16:07;;;;;;;2.08;1.40;;;34.90;36.50;;;;;;925885;153;26299;-77
2022/07/27 10:18:36;;;;;;;3.47;1.35;;;35.20;35.80;;;;;;922979;151;27486;-77
2022/07/27 10:21:02;;;;;;;2.20;1.00;;;35.30;35.10;;;;;;939171;148;27403;-77
2022/07/27 10:23:31;;;;;;;2.58;1.25;;;35.30;34.50;;;;;;938909;151;27425;-77
2022/07/27 10:26:13;;;;;;;2.45;1.15;;;35.10;34.20;;;;;;939767;148;27381;-77
2022/07/27 10:28:49;;;;;;;3.47;1.30;;;34.70;33.80;;;;;;940112;151;27350;-77
2022/07/27 10:31:18;;;;;;;3.58;1.47;;;34.30;34.00;;;;;;941155;148;27366;-77
2022/07/27 10:33:45;;;;;;;4.47;1.12;;;33.70;34.00;;;;;;938551;148;27364;-77
2022/07/27 10:36:18;;;;;;;2.22;1.30;;;33.10;34.40;;;;;;938939;148;27384;-77
2022/07/27 10:38:50;;;;;;;1.87;1.55;;;32.60;35.00;;;;;;932503;149;27843;-77
2022/07/27 10:41:19;;;;;;;3.37;1.35;;;32.20;35.40;;;;;;938975;148;27354;-77
2022/07/27 10:43:46;;;;;;;1.25;1.07;;;31.80;35.80;;;;;;940807;151;27372;-77
2022/07/27 10:46:13;;;;;;;4.62;1.22;;;31.60;36.20;;;;;;940394;148;27286;-77
2022/07/27 10:48:39;;;;;;;1.67;1.00;;;31.40;36.30;;;;;;941939;148;27372;-77
2022/07/27 10:51:06;;;;;;;4.12;1.22;;;31.30;36.70;;;;;;940449;148;27319;-77
2022/07/27 10:53:33;;;;;;;2.37;1.32;;;31.20;36.90;;;;;;940505;149;27422;-77
2022/07/27 10:55:59;;;;;;;2.27;1.32;;;31.10;37.00;;;;;;939571;151;27465;-77
2022/07/27 10:58:27;;;;;;;1.90;1.10;;;31.10;37.00;;;;;;939926;151;27290;-77
2022/07/27 11:00:52;;;;;;;1.62;1.20;;;31.00;37.10;;;;;;940769;151;27399;-77
2022/07/27 11:03:27;;;;;;;1.72;1.20;;;30.90;37.50;;;;;;940623;151;27361;-77
2022/07/27 11:05:57;;;;;;;2.22;1.12;;;30.80;37.00;;;;;;929690;154;27459;-77
2022/07/27 11:08:26;;;;;;;1.52;0.98;;;30.70;37.20;;;;;;939985;148;27331;-77
2022/07/27 11:10:53;;;;;;;2.37;1.20;;;30.50;37.20;;;;;;940056;148;27339;-78
2022/07/27 11:13:19;;;;;;;2.80;1.05;;;30.40;37.30;;;;;;939310;148;27375;-78
2022/07/27 11:15:55;;;;;;;2.10;1.12;;;30.40;37.50;;;;;;940748;149;27426;-78
2022/07/27 11:18:28;;;;;;;2.45;1.35;;;30.30;37.40;;;;;;938185;148;27358;-78
2022/07/27 11:21:13;;;;;;;2.17;1.27;;;30.30;37.40;;;;;;938445;151;27415;-78
2022/07/27 11:23:39;;;;;;;2.58;1.10;;;30.20;37.50;;;;;;930294;151;27432;-78
2022/07/27 11:26:05;;;;;;;4.08;1.25;;;30.20;37.60;;;;;;938160;151;27326;-78
2022/07/27 11:28:32;;;;;;;4.03;1.22;;;30.20;37.50;;;;;;924897;154;27397;-78
2022/07/27 11:30:59;;;;;;;1.32;1.12;;;30.30;37.50;;;;;;935878;152;27349;-78
2022/07/27 11:33:25;;;;;;;1.87;0.98;;;30.30;37.60;;;;;;925819;151;27340;-78
2022/07/27 11:35:54;;;;;;;2.25;1.12;;;30.30;37.40;;;;;;924692;154;27364;-78
2022/07/27 11:38:21;;;;;;;1.42;1.12;;;30.30;37.30;;;;;;922656;152;27379;-78
2022/07/27 11:40:48;;;;;;;2.42;1.00;;;30.30;37.10;;;;;;925729;154;27393;-78
2022/07/27 11:43:32;;;;;;;1.10;1.00;;;30.30;37.00;;;;;;924323;154;27496;-78
2022/07/27 11:46:14;;;;;;;1.55;1.10;;;30.20;37.10;;;;;;920816;154;27465;-78
2022/07/27 11:48:46;;;;;;;2.50;0.98;;;30.20;37.10;;;;;;923103;152;27468;-78
2022/07/27 11:51:13;;;;;;;2.25;1.02;;;30.10;36.90;;;;;;922876;154;27946;-78
2022/07/27 11:53:39;;;;;;;1.60;0.98;;;30.00;36.70;;;;;;922341;154;27399;-78
2022/07/27 11:56:06;;;;;;;5.08;1.07;;;29.90;36.80;;;;;;923812;152;27397;-78
2022/07/27 11:58:33;;;;;;;0.90;0.70;;;29.80;36.90;;;;;;923753;152;27450;-78
2022/07/27 12:00:59;;;;;;;1.65;0.90;;;29.70;36.80;;;;;;924120;152;27825;-78
2022/07/27 12:03:29;;;;;;;1.67;1.02;;;29.70;37.00;;;;;;923129;152;27482;-78
2022/07/27 12:05:55;;;;;;;1.70;1.37;;;29.60;36.90;;;;;;922548;151;27471;-78
2022/07/27 12:08:22;;;;;;;2.83;1.00;;;29.60;36.90;;;;;;923314;152;27499;-77
2022/07/27 12:10:57;;;;;;;1.17;0.90;;;29.40;36.80;;;;;;921349;152;27372;-78
2022/07/27 12:13:23;;;;;;;2.40;1.50;;;29.30;36.70;;;;;;924379;152;27902;-78
2022/07/27 12:15:56;;;;;;;1.70;0.90;;;29.20;36.90;;;;;;919971;152;27447;-78
2022/07/27 12:18:23;;;;;;;2.22;1.35;;;29.10;36.90;;;;;;923978;152;27397;-78
2022/07/27 12:20:50;;;;;;;2.17;1.25;;;29.00;37.10;;;;;;921831;152;28326;-78
2022/07/27 12:23:16;;;;;;;2.58;1.05;;;28.90;37.30;;;;;;923111;152;27409;-78
2022/07/27 12:25:43;;;;;;;2.20;1.15;;;28.80;37.20;;;;;;923247;152;27366;-78
2022/07/27 12:28:11;;;;;;;2.45;0.90;;;28.70;37.20;;;;;;922285;152;27354;-78
2022/07/27 12:30:44;;;;;;;1.72;1.07;;;28.60;37.20;;;;;;938554;148;27437;-78
2022/07/27 12:33:29;;;;;;;1.15;1.05;;;28.50;37.20;;;;;;938747;148;27346;-78
2022/07/27 12:35:56;;;;;;;1.00;0.88;;;28.40;37.20;;;;;;935798;149;27288;-78
2022/07/27 12:38:23;;;;;;;1.98;1.35;;;28.30;37.30;;;;;;937413;149;27407;-78
2022/07/27 12:40:49;;;;;;;1.67;0.93;;;28.30;37.40;;;;;;936031;149;27337;-78
2022/07/27 12:43:16;;;;;;;3.25;0.93;;;28.30;38.10;;;;;;935161;149;27324;-77
2022/07/27 12:45:42;;;;;;;1.20;1.10;;;28.30;37.50;;;;;;936832;149;27836;-78
2022/07/27 12:48:09;;;;;;;1.20;1.00;;;28.30;37.50;;;;;;938760;149;27433;-78
2022/07/27 12:50:36;;;;;;;1.92;0.90;;;28.30;37.40;;;;;;937367;149;27388;-78